Terminal Aerodrome Forecast
Issued by NWS Portland, OR

Home | Current Version | Previous Version | Text Only | Print | Product List | Glossary On
Versions: 1 2 3 4 5 6 7 8 9 10 11 12 13 14 15 16 17
000
FTUS46 KPQR 271720
TAFAST
TAF
KAST 271720Z 2718/2818 27010KT P6SM -SHRA SCT035 BKN050
     FM272300 30010KT P6SM VCSH BKN040 BKN100
     FM280600 25005KT P6SM SCT025 BKN035
     FM280800 20004KT P6SM SCT025 BKN035
     FM281000 18004KT P6SM -SHRA SCT025 BKN035=

USA.gov is the U.S. government's official web portal to all federal, state and local government web resources and services.